sensor_id;sensor_type;location;lat;lon;timestamp;P1;durP1;ratioP1;P2;durP2;ratioP2
5391;SDS011;2719;53.624;9.786;2023-08-06T00:01:34;3.87;;;1.47;;
5391;SDS011;2719;53.624;9.786;2023-08-06T00:04:01;3.17;;;2.00;;
5391;SDS011;2719;53.624;9.786;2023-08-06T00:06:28;3.63;;;1.90;;
5391;SDS011;2719;53.624;9.786;2023-08-06T00:08:54;5.40;;;2.67;;
5391;SDS011;2719;53.624;9.786;2023-08-06T00:11:22;4.90;;;2.40;;
5391;SDS011;2719;53.624;9.786;2023-08-06T00:13:49;5.57;;;2.50;;
5391;SDS011;2719;53.624;9.786;2023-08-06T00:16:16;7.63;;;2.57;;
5391;SDS011;2719;53.624;9.786;2023-08-06T00:18:42;3.57;;;2.50;;
5391;SDS011;2719;53.624;9.786;2023-08-06T00:21:09;3.70;;;2.87;;
5391;SDS011;2719;53.624;9.786;2023-08-06T00:23:37;3.40;;;2.63;;
5391;SDS011;2719;53.624;9.786;2023-08-06T00:26:03;3.23;;;2.10;;
5391;SDS011;2719;53.624;9.786;2023-08-06T00:28:31;6.20;;;3.70;;
5391;SDS011;2719;53.624;9.786;2023-08-06T00:30:58;5.83;;;4.00;;
5391;SDS011;2719;53.624;9.786;2023-08-06T00:33:25;6.50;;;4.27;;
5391;SDS011;2719;53.624;9.786;2023-08-06T00:35:51;6.10;;;3.77;;
5391;SDS011;2719;53.624;9.786;2023-08-06T00:38:18;7.30;;;4.33;;
5391;SDS011;2719;53.624;9.786;2023-08-06T00:40:45;7.23;;;4.50;;
5391;SDS011;2719;53.624;9.786;2023-08-06T00:43:11;5.93;;;3.93;;
5391;SDS011;2719;53.624;9.786;2023-08-06T00:45:39;6.40;;;3.60;;
5391;SDS011;2719;53.624;9.786;2023-08-06T00:48:06;6.67;;;4.33;;
5391;SDS011;2719;53.624;9.786;2023-08-06T00:50:33;6.90;;;3.80;;
5391;SDS011;2719;53.624;9.786;2023-08-06T00:53:00;4.93;;;3.90;;
5391;SDS011;2719;53.624;9.786;2023-08-06T00:55:27;6.53;;;3.30;;
5391;SDS011;2719;53.624;9.786;2023-08-06T00:57:55;4.47;;;2.60;;
5391;SDS011;2719;53.624;9.786;2023-08-06T01:00:22;3.70;;;2.63;;
5391;SDS011;2719;53.624;9.786;2023-08-06T01:02:51;5.70;;;3.13;;
5391;SDS011;2719;53.624;9.786;2023-08-06T01:05:19;3.93;;;2.07;;
5391;SDS011;2719;53.624;9.786;2023-08-06T01:07:48;4.97;;;2.67;;
5391;SDS011;2719;53.624;9.786;2023-08-06T01:10:30;4.40;;;2.43;;
5391;SDS011;2719;53.624;9.786;2023-08-06T01:13:08;3.13;;;2.30;;
5391;SDS011;2719;53.624;9.786;2023-08-06T01:15:43;4.77;;;2.07;;
5391;SDS011;2719;53.624;9.786;2023-08-06T01:18:14;3.40;;;2.30;;
5391;SDS011;2719;53.624;9.786;2023-08-06T01:20:42;7.37;;;2.40;;
5391;SDS011;2719;53.624;9.786;2023-08-06T01:23:09;3.10;;;1.70;;
5391;SDS011;2719;53.624;9.786;2023-08-06T01:25:38;2.50;;;1.60;;
5391;SDS011;2719;53.624;9.786;2023-08-06T01:28:14;2.40;;;1.77;;
5391;SDS011;2719;53.624;9.786;2023-08-06T01:30:45;3.67;;;2.00;;
5391;SDS011;2719;53.624;9.786;2023-08-06T01:33:16;4.07;;;1.80;;
5391;SDS011;2719;53.624;9.786;2023-08-06T01:35:48;4.37;;;2.07;;
5391;SDS011;2719;53.624;9.786;2023-08-06T01:38:16;4.70;;;2.60;;
5391;SDS011;2719;53.624;9.786;2023-08-06T01:40:42;1.40;;;1.13;;
5391;SDS011;2719;53.624;9.786;2023-08-06T01:43:09;3.33;;;1.93;;
5391;SDS011;2719;53.624;9.786;2023-08-06T01:45:36;5.87;;;2.00;;
5391;SDS011;2719;53.624;9.786;2023-08-06T01:48:03;2.33;;;1.80;;
5391;SDS011;2719;53.624;9.786;2023-08-06T01:50:30;2.83;;;1.20;;
5391;SDS011;2719;53.624;9.786;2023-08-06T01:52:57;4.13;;;1.70;;
5391;SDS011;2719;53.624;9.786;2023-08-06T01:55:25;2.57;;;1.87;;
5391;SDS011;2719;53.624;9.786;2023-08-06T01:57:52;5.40;;;1.53;;
5391;SDS011;2719;53.624;9.786;2023-08-06T02:00:18;4.63;;;1.73;;
5391;SDS011;2719;53.624;9.786;2023-08-06T02:02:45;3.40;;;1.70;;
5391;SDS011;2719;53.624;9.786;2023-08-06T02:05:12;3.07;;;2.10;;
5391;SDS011;2719;53.624;9.786;2023-08-06T02:07:38;4.50;;;1.70;;
5391;SDS011;2719;53.624;9.786;2023-08-06T02:10:07;3.80;;;2.07;;
5391;SDS011;2719;53.624;9.786;2023-08-06T02:12:34;3.13;;;2.33;;
5391;SDS011;2719;53.624;9.786;2023-08-06T02:15:01;2.10;;;1.53;;
5391;SDS011;2719;53.624;9.786;2023-08-06T02:17:27;4.07;;;2.03;;
5391;SDS011;2719;53.624;9.786;2023-08-06T02:19:54;2.80;;;1.90;;
5391;SDS011;2719;53.624;9.786;2023-08-06T02:22:21;3.53;;;1.90;;
5391;SDS011;2719;53.624;9.786;2023-08-06T02:24:48;3.20;;;1.90;;
5391;SDS011;2719;53.624;9.786;2023-08-06T02:27:16;5.57;;;2.47;;
5391;SDS011;2719;53.624;9.786;2023-08-06T02:29:43;3.63;;;2.20;;
5391;SDS011;2719;53.624;9.786;2023-08-06T02:32:10;4.30;;;2.47;;
5391;SDS011;2719;53.624;9.786;2023-08-06T02:34:36;4.37;;;2.60;;
5391;SDS011;2719;53.624;9.786;2023-08-06T02:37:03;3.70;;;2.43;;
5391;SDS011;2719;53.624;9.786;2023-08-06T02:39:31;4.37;;;3.00;;
5391;SDS011;2719;53.624;9.786;2023-08-06T02:41:58;4.40;;;2.70;;
5391;SDS011;2719;53.624;9.786;2023-08-06T02:44:28;5.77;;;3.53;;
5391;SDS011;2719;53.624;9.786;2023-08-06T02:46:54;3.93;;;2.87;;
5391;SDS011;2719;53.624;9.786;2023-08-06T02:49:21;6.00;;;3.80;;
5391;SDS011;2719;53.624;9.786;2023-08-06T02:51:47;5.80;;;2.60;;
5391;SDS011;2719;53.624;9.786;2023-08-06T02:54:14;4.07;;;2.50;;
5391;SDS011;2719;53.624;9.786;2023-08-06T02:56:42;3.97;;;2.67;;
5391;SDS011;2719;53.624;9.786;2023-08-06T02:59:10;5.37;;;2.63;;
5391;SDS011;2719;53.624;9.786;2023-08-06T03:01:38;5.60;;;2.60;;
5391;SDS011;2719;53.624;9.786;2023-08-06T03:04:04;5.50;;;2.67;;
5391;SDS011;2719;53.624;9.786;2023-08-06T03:06:31;5.17;;;2.17;;
5391;SDS011;2719;53.624;9.786;2023-08-06T03:08:58;4.70;;;2.73;;
5391;SDS011;2719;53.624;9.786;2023-08-06T03:11:24;3.33;;;2.17;;
5391;SDS011;2719;53.624;9.786;2023-08-06T03:13:51;4.40;;;2.60;;
5391;SDS011;2719;53.624;9.786;2023-08-06T03:16:18;4.20;;;2.30;;
5391;SDS011;2719;53.624;9.786;2023-08-06T03:18:46;3.00;;;1.90;;
5391;SDS011;2719;53.624;9.786;2023-08-06T03:21:13;4.60;;;2.87;;
5391;SDS011;2719;53.624;9.786;2023-08-06T03:23:39;6.17;;;2.70;;
5391;SDS011;2719;53.624;9.786;2023-08-06T03:26:06;5.23;;;2.97;;
5391;SDS011;2719;53.624;9.786;2023-08-06T03:28:33;4.80;;;2.17;;
5391;SDS011;2719;53.624;9.786;2023-08-06T03:30:59;3.67;;;2.50;;
5391;SDS011;2719;53.624;9.786;2023-08-06T03:33:26;5.47;;;2.80;;
5391;SDS011;2719;53.624;9.786;2023-08-06T03:35:54;6.30;;;2.97;;
5391;SDS011;2719;53.624;9.786;2023-08-06T03:38:21;3.47;;;2.37;;
5391;SDS011;2719;53.624;9.786;2023-08-06T03:40:48;3.50;;;2.50;;
5391;SDS011;2719;53.624;9.786;2023-08-06T03:43:14;4.03;;;2.43;;
5391;SDS011;2719;53.624;9.786;2023-08-06T03:45:41;7.90;;;2.83;;
5391;SDS011;2719;53.624;9.786;2023-08-06T03:48:08;3.10;;;2.33;;
5391;SDS011;2719;53.624;9.786;2023-08-06T03:50:35;5.37;;;2.73;;
5391;SDS011;2719;53.624;9.786;2023-08-06T03:53:04;5.43;;;2.60;;
5391;SDS011;2719;53.624;9.786;2023-08-06T03:55:31;4.70;;;2.47;;
5391;SDS011;2719;53.624;9.786;2023-08-06T03:57:57;5.50;;;2.70;;
5391;SDS011;2719;53.624;9.786;2023-08-06T04:00:24;6.20;;;3.43;;
5391;SDS011;2719;53.624;9.786;2023-08-06T04:02:50;4.50;;;3.10;;
5391;SDS011;2719;53.624;9.786;2023-08-06T04:05:18;7.50;;;2.17;;
5391;SDS011;2719;53.624;9.786;2023-08-06T04:07:44;6.23;;;2.60;;
5391;SDS011;2719;53.624;9.786;2023-08-06T04:10:12;6.70;;;2.90;;
5391;SDS011;2719;53.624;9.786;2023-08-06T04:12:39;5.07;;;2.27;;
5391;SDS011;2719;53.624;9.786;2023-08-06T04:15:06;9.10;;;2.63;;
5391;SDS011;2719;53.624;9.786;2023-08-06T04:17:33;4.57;;;2.50;;
5391;SDS011;2719;53.624;9.786;2023-08-06T04:20:00;3.87;;;2.67;;
5391;SDS011;2719;53.624;9.786;2023-08-06T04:22:27;10.57;;;2.80;;
5391;SDS011;2719;53.624;9.786;2023-08-06T04:24:54;5.13;;;2.33;;
5391;SDS011;2719;53.624;9.786;2023-08-06T04:27:21;8.37;;;2.83;;
5391;SDS011;2719;53.624;9.786;2023-08-06T04:29:48;5.55;;;2.50;;
5391;SDS011;2719;53.624;9.786;2023-08-06T04:32:15;5.00;;;2.83;;
5391;SDS011;2719;53.624;9.786;2023-08-06T04:34:42;4.17;;;2.10;;
5391;SDS011;2719;53.624;9.786;2023-08-06T04:37:09;6.23;;;2.80;;
5391;SDS011;2719;53.624;9.786;2023-08-06T04:39:35;4.80;;;2.20;;
5391;SDS011;2719;53.624;9.786;2023-08-06T04:42:02;5.67;;;2.03;;
5391;SDS011;2719;53.624;9.786;2023-08-06T04:44:31;5.17;;;2.40;;
5391;SDS011;2719;53.624;9.786;2023-08-06T04:46:57;6.10;;;1.80;;
5391;SDS011;2719;53.624;9.786;2023-08-06T04:49:24;4.67;;;1.90;;
5391;SDS011;2719;53.624;9.786;2023-08-06T04:51:51;3.37;;;1.97;;
5391;SDS011;2719;53.624;9.786;2023-08-06T04:54:17;3.60;;;1.63;;
5391;SDS011;2719;53.624;9.786;2023-08-06T04:56:44;6.03;;;1.27;;
5391;SDS011;2719;53.624;9.786;2023-08-06T04:59:11;8.40;;;1.57;;
5391;SDS011;2719;53.624;9.786;2023-08-06T05:01:39;2.20;;;1.50;;
5391;SDS011;2719;53.624;9.786;2023-08-06T05:04:05;3.83;;;1.83;;
5391;SDS011;2719;53.624;9.786;2023-08-06T05:06:32;3.97;;;1.50;;
5391;SDS011;2719;53.624;9.786;2023-08-06T05:08:59;4.00;;;1.87;;
5391;SDS011;2719;53.624;9.786;2023-08-06T05:11:25;2.80;;;1.83;;
5391;SDS011;2719;53.624;9.786;2023-08-06T05:13:52;9.97;;;1.70;;
5391;SDS011;2719;53.624;9.786;2023-08-06T05:16:18;8.53;;;1.70;;
5391;SDS011;2719;53.624;9.786;2023-08-06T05:18:46;10.73;;;2.03;;
5391;SDS011;2719;53.624;9.786;2023-08-06T05:21:13;5.33;;;2.00;;
5391;SDS011;2719;53.624;9.786;2023-08-06T05:23:41;4.90;;;1.57;;
5391;SDS011;2719;53.624;9.786;2023-08-06T05:26:07;5.03;;;2.13;;
5391;SDS011;2719;53.624;9.786;2023-08-06T05:28:34;8.50;;;1.70;;
5391;SDS011;2719;53.624;9.786;2023-08-06T05:31:02;11.00;;;1.90;;
5391;SDS011;2719;53.624;9.786;2023-08-06T05:33:29;4.20;;;1.93;;
5391;SDS011;2719;53.624;9.786;2023-08-06T05:35:57;7.77;;;1.67;;
5391;SDS011;2719;53.624;9.786;2023-08-06T05:38:24;5.67;;;1.97;;
5391;SDS011;2719;53.624;9.786;2023-08-06T05:40:51;4.83;;;1.70;;
5391;SDS011;2719;53.624;9.786;2023-08-06T05:43:17;8.53;;;1.93;;
5391;SDS011;2719;53.624;9.786;2023-08-06T05:45:44;5.00;;;2.57;;
5391;SDS011;2719;53.624;9.786;2023-08-06T05:48:11;7.00;;;1.60;;
5391;SDS011;2719;53.624;9.786;2023-08-06T05:50:38;3.90;;;2.03;;
5391;SDS011;2719;53.624;9.786;2023-08-06T05:53:06;4.87;;;1.80;;
5391;SDS011;2719;53.624;9.786;2023-08-06T05:55:32;3.20;;;2.07;;
5391;SDS011;2719;53.624;9.786;2023-08-06T05:58:00;7.80;;;2.13;;
5391;SDS011;2719;53.624;9.786;2023-08-06T06:00:27;6.53;;;2.23;;
5391;SDS011;2719;53.624;9.786;2023-08-06T06:02:54;5.50;;;1.47;;
5391;SDS011;2719;53.624;9.786;2023-08-06T06:05:20;4.47;;;2.10;;
5391;SDS011;2719;53.624;9.786;2023-08-06T06:07:47;5.83;;;2.00;;
5391;SDS011;2719;53.624;9.786;2023-08-06T06:10:15;5.27;;;1.90;;
5391;SDS011;2719;53.624;9.786;2023-08-06T06:12:42;3.10;;;1.87;;
5391;SDS011;2719;53.624;9.786;2023-08-06T06:15:09;6.23;;;2.37;;
5391;SDS011;2719;53.624;9.786;2023-08-06T06:17:36;7.00;;;2.00;;
5391;SDS011;2719;53.624;9.786;2023-08-06T06:20:02;3.10;;;1.80;;
5391;SDS011;2719;53.624;9.786;2023-08-06T06:22:30;5.23;;;2.13;;
5391;SDS011;2719;53.624;9.786;2023-08-06T06:24:56;4.20;;;2.10;;
5391;SDS011;2719;53.624;9.786;2023-08-06T06:27:24;5.13;;;2.20;;
5391;SDS011;2719;53.624;9.786;2023-08-06T06:29:51;3.97;;;2.13;;
5391;SDS011;2719;53.624;9.786;2023-08-06T06:32:19;7.63;;;2.40;;
5391;SDS011;2719;53.624;9.786;2023-08-06T06:34:46;6.60;;;2.20;;
5391;SDS011;2719;53.624;9.786;2023-08-06T06:37:13;9.53;;;2.47;;
5391;SDS011;2719;53.624;9.786;2023-08-06T06:39:39;8.63;;;2.10;;
5391;SDS011;2719;53.624;9.786;2023-08-06T06:42:06;7.20;;;2.27;;
5391;SDS011;2719;53.624;9.786;2023-08-06T06:44:34;4.87;;;2.67;;
5391;SDS011;2719;53.624;9.786;2023-08-06T06:47:01;8.70;;;3.07;;
5391;SDS011;2719;53.624;9.786;2023-08-06T06:49:27;7.23;;;1.20;;
5391;SDS011;2719;53.624;9.786;2023-08-06T06:51:54;4.57;;;2.13;;
5391;SDS011;2719;53.624;9.786;2023-08-06T06:54:20;5.30;;;1.70;;
5391;SDS011;2719;53.624;9.786;2023-08-06T06:56:47;5.10;;;2.27;;
5391;SDS011;2719;53.624;9.786;2023-08-06T06:59:14;8.23;;;2.70;;
5391;SDS011;2719;53.624;9.786;2023-08-06T07:01:42;4.10;;;2.33;;
5391;SDS011;2719;53.624;9.786;2023-08-06T07:04:08;4.80;;;2.30;;
5391;SDS011;2719;53.624;9.786;2023-08-06T07:06:35;3.70;;;1.87;;
5391;SDS011;2719;53.624;9.786;2023-08-06T07:09:01;6.67;;;2.40;;
5391;SDS011;2719;53.624;9.786;2023-08-06T07:11:28;6.23;;;2.10;;
5391;SDS011;2719;53.624;9.786;2023-08-06T07:13:56;5.33;;;2.23;;
5391;SDS011;2719;53.624;9.786;2023-08-06T07:16:23;4.90;;;2.03;;
5391;SDS011;2719;53.624;9.786;2023-08-06T07:18:52;4.13;;;1.70;;
5391;SDS011;2719;53.624;9.786;2023-08-06T07:21:19;9.63;;;2.33;;
5391;SDS011;2719;53.624;9.786;2023-08-06T07:23:46;5.53;;;2.30;;
5391;SDS011;2719;53.624;9.786;2023-08-06T07:26:14;4.83;;;2.07;;
5391;SDS011;2719;53.624;9.786;2023-08-06T07:28:41;11.60;;;3.73;;
5391;SDS011;2719;53.624;9.786;2023-08-06T07:31:08;4.97;;;2.80;;
5391;SDS011;2719;53.624;9.786;2023-08-06T07:33:34;13.80;;;2.27;;
5391;SDS011;2719;53.624;9.786;2023-08-06T07:36:08;6.73;;;3.00;;
5391;SDS011;2719;53.624;9.786;2023-08-06T07:38:36;7.57;;;3.20;;
5391;SDS011;2719;53.624;9.786;2023-08-06T07:41:02;8.13;;;3.07;;
5391;SDS011;2719;53.624;9.786;2023-08-06T07:43:29;9.80;;;3.30;;
5391;SDS011;2719;53.624;9.786;2023-08-06T07:45:57;7.80;;;2.90;;
5391;SDS011;2719;53.624;9.786;2023-08-06T07:48:24;4.50;;;2.63;;
5391;SDS011;2719;53.624;9.786;2023-08-06T07:50:51;8.93;;;2.70;;
5391;SDS011;2719;53.624;9.786;2023-08-06T07:53:20;12.60;;;3.40;;
5391;SDS011;2719;53.624;9.786;2023-08-06T07:55:48;5.00;;;2.93;;
5391;SDS011;2719;53.624;9.786;2023-08-06T07:58:18;7.17;;;3.07;;
5391;SDS011;2719;53.624;9.786;2023-08-06T08:00:45;5.80;;;3.30;;
5391;SDS011;2719;53.624;9.786;2023-08-06T08:03:13;7.60;;;3.23;;
5391;SDS011;2719;53.624;9.786;2023-08-06T08:05:40;6.70;;;3.70;;
5391;SDS011;2719;53.624;9.786;2023-08-06T08:08:07;8.67;;;3.60;;
5391;SDS011;2719;53.624;9.786;2023-08-06T08:10:35;6.50;;;2.80;;
5391;SDS011;2719;53.624;9.786;2023-08-06T08:13:03;9.50;;;3.40;;
5391;SDS011;2719;53.624;9.786;2023-08-06T08:15:30;8.30;;;3.97;;
5391;SDS011;2719;53.624;9.786;2023-08-06T08:17:57;7.57;;;3.63;;
5391;SDS011;2719;53.624;9.786;2023-08-06T08:20:25;6.60;;;3.23;;
5391;SDS011;2719;53.624;9.786;2023-08-06T08:22:56;5.60;;;3.27;;
5391;SDS011;2719;53.624;9.786;2023-08-06T08:25:23;4.50;;;3.30;;
5391;SDS011;2719;53.624;9.786;2023-08-06T08:27:51;4.63;;;2.00;;
5391;SDS011;2719;53.624;9.786;2023-08-06T08:30:18;8.97;;;3.80;;
5391;SDS011;2719;53.624;9.786;2023-08-06T08:32:45;8.83;;;2.67;;
5391;SDS011;2719;53.624;9.786;2023-08-06T08:35:12;6.33;;;3.30;;
5391;SDS011;2719;53.624;9.786;2023-08-06T08:37:41;8.07;;;3.13;;
5391;SDS011;2719;53.624;9.786;2023-08-06T08:40:08;6.20;;;3.03;;
5391;SDS011;2719;53.624;9.786;2023-08-06T08:42:35;14.23;;;3.60;;
5391;SDS011;2719;53.624;9.786;2023-08-06T08:45:04;12.27;;;3.77;;
5391;SDS011;2719;53.624;9.786;2023-08-06T08:47:35;6.57;;;2.87;;
5391;SDS011;2719;53.624;9.786;2023-08-06T08:50:04;4.87;;;2.10;;
5391;SDS011;2719;53.624;9.786;2023-08-06T08:52:32;5.30;;;2.13;;
5391;SDS011;2719;53.624;9.786;2023-08-06T08:55:02;7.13;;;3.10;;
5391;SDS011;2719;53.624;9.786;2023-08-06T08:57:29;7.80;;;2.67;;
5391;SDS011;2719;53.624;9.786;2023-08-06T08:59:55;7.00;;;3.60;;
5391;SDS011;2719;53.624;9.786;2023-08-06T09:02:23;5.63;;;2.97;;
5391;SDS011;2719;53.624;9.786;2023-08-06T09:04:54;8.23;;;3.63;;
5391;SDS011;2719;53.624;9.786;2023-08-06T09:07:24;7.47;;;3.00;;
5391;SDS011;2719;53.624;9.786;2023-08-06T09:09:52;8.80;;;3.20;;
5391;SDS011;2719;53.624;9.786;2023-08-06T09:12:20;5.73;;;3.00;;
5391;SDS011;2719;53.624;9.786;2023-08-06T09:14:48;4.90;;;2.93;;
5391;SDS011;2719;53.624;9.786;2023-08-06T09:17:15;7.00;;;3.10;;
5391;SDS011;2719;53.624;9.786;2023-08-06T09:19:46;9.47;;;4.97;;
5391;SDS011;2719;53.624;9.786;2023-08-06T09:22:14;9.30;;;3.70;;
5391;SDS011;2719;53.624;9.786;2023-08-06T09:24:42;6.30;;;3.30;;
5391;SDS011;2719;53.624;9.786;2023-08-06T09:27:12;6.47;;;3.43;;
5391;SDS011;2719;53.624;9.786;2023-08-06T09:29:40;7.57;;;2.63;;
5391;SDS011;2719;53.624;9.786;2023-08-06T09:32:08;4.70;;;3.37;;
5391;SDS011;2719;53.624;9.786;2023-08-06T09:34:35;6.60;;;3.27;;
5391;SDS011;2719;53.624;9.786;2023-08-06T09:37:05;7.63;;;3.53;;
5391;SDS011;2719;53.624;9.786;2023-08-06T09:39:34;7.13;;;2.93;;
5391;SDS011;2719;53.624;9.786;2023-08-06T09:42:01;4.50;;;3.00;;
5391;SDS011;2719;53.624;9.786;2023-08-06T09:44:30;6.50;;;3.07;;
5391;SDS011;2719;53.624;9.786;2023-08-06T09:46:58;3.70;;;2.40;;
5391;SDS011;2719;53.624;9.786;2023-08-06T09:49:26;6.43;;;2.10;;
5391;SDS011;2719;53.624;9.786;2023-08-06T09:51:54;5.30;;;2.90;;
5391;SDS011;2719;53.624;9.786;2023-08-06T09:54:24;4.23;;;2.87;;
5391;SDS011;2719;53.624;9.786;2023-08-06T09:56:52;8.33;;;2.60;;
5391;SDS011;2719;53.624;9.786;2023-08-06T09:59:19;3.10;;;1.80;;
5391;SDS011;2719;53.624;9.786;2023-08-06T10:01:46;5.73;;;2.17;;
5391;SDS011;2719;53.624;9.786;2023-08-06T10:04:14;6.10;;;2.50;;
5391;SDS011;2719;53.624;9.786;2023-08-06T10:06:41;4.10;;;2.00;;
5391;SDS011;2719;53.624;9.786;2023-08-06T10:09:08;8.83;;;2.10;;
5391;SDS011;2719;53.624;9.786;2023-08-06T10:11:37;3.27;;;1.60;;
5391;SDS011;2719;53.624;9.786;2023-08-06T10:14:06;6.13;;;2.53;;
5391;SDS011;2719;53.624;9.786;2023-08-06T10:16:37;4.27;;;2.57;;
5391;SDS011;2719;53.624;9.786;2023-08-06T10:19:05;7.80;;;2.70;;
5391;SDS011;2719;53.624;9.786;2023-08-06T10:21:35;7.50;;;2.70;;
5391;SDS011;2719;53.624;9.786;2023-08-06T10:24:06;6.50;;;2.23;;
5391;SDS011;2719;53.624;9.786;2023-08-06T10:26:34;8.40;;;2.90;;
5391;SDS011;2719;53.624;9.786;2023-08-06T10:32:02;7.60;;;2.60;;
5391;SDS011;2719;53.624;9.786;2023-08-06T10:37:22;13.97;;;2.97;;
5391;SDS011;2719;53.624;9.786;2023-08-06T10:39:49;4.10;;;1.97;;
5391;SDS011;2719;53.624;9.786;2023-08-06T10:42:22;9.37;;;3.17;;
5391;SDS011;2719;53.624;9.786;2023-08-06T10:47:37;5.97;;;2.83;;
5391;SDS011;2719;53.624;9.786;2023-08-06T10:50:05;7.30;;;3.10;;
5391;SDS011;2719;53.624;9.786;2023-08-06T10:52:33;7.10;;;2.80;;
5391;SDS011;2719;53.624;9.786;2023-08-06T10:55:01;6.13;;;2.90;;
5391;SDS011;2719;53.624;9.786;2023-08-06T10:57:29;5.33;;;2.47;;
5391;SDS011;2719;53.624;9.786;2023-08-06T10:59:56;5.67;;;3.57;;
5391;SDS011;2719;53.624;9.786;2023-08-06T11:02:24;5.07;;;2.70;;
5391;SDS011;2719;53.624;9.786;2023-08-06T11:04:53;3.53;;;1.97;;
5391;SDS011;2719;53.624;9.786;2023-08-06T11:07:20;4.07;;;1.60;;
5391;SDS011;2719;53.624;9.786;2023-08-06T11:09:50;6.73;;;2.20;;
5391;SDS011;2719;53.624;9.786;2023-08-06T11:12:19;4.20;;;2.00;;
5391;SDS011;2719;53.624;9.786;2023-08-06T11:14:51;6.90;;;2.13;;
5391;SDS011;2719;53.624;9.786;2023-08-06T11:17:19;6.53;;;2.60;;
5391;SDS011;2719;53.624;9.786;2023-08-06T11:19:45;6.77;;;2.20;;
5391;SDS011;2719;53.624;9.786;2023-08-06T11:22:13;3.67;;;2.10;;
5391;SDS011;2719;53.624;9.786;2023-08-06T11:24:40;7.33;;;1.97;;
5391;SDS011;2719;53.624;9.786;2023-08-06T11:27:11;4.60;;;2.00;;
5391;SDS011;2719;53.624;9.786;2023-08-06T11:29:39;5.93;;;2.43;;
5391;SDS011;2719;53.624;9.786;2023-08-06T11:32:09;4.53;;;2.27;;
5391;SDS011;2719;53.624;9.786;2023-08-06T11:34:36;4.73;;;2.20;;
5391;SDS011;2719;53.624;9.786;2023-08-06T11:37:05;5.00;;;2.30;;
5391;SDS011;2719;53.624;9.786;2023-08-06T11:39:33;6.30;;;2.60;;
5391;SDS011;2719;53.624;9.786;2023-08-06T11:42:02;5.30;;;2.30;;
5391;SDS011;2719;53.624;9.786;2023-08-06T11:44:29;5.47;;;2.63;;
5391;SDS011;2719;53.624;9.786;2023-08-06T11:46:57;5.00;;;2.03;;
5391;SDS011;2719;53.624;9.786;2023-08-06T11:49:43;2.47;;;1.90;;
5391;SDS011;2719;53.624;9.786;2023-08-06T11:52:15;3.40;;;2.00;;
5391;SDS011;2719;53.624;9.786;2023-08-06T11:54:44;8.10;;;2.63;;
5391;SDS011;2719;53.624;9.786;2023-08-06T11:57:12;3.27;;;2.07;;
5391;SDS011;2719;53.624;9.786;2023-08-06T11:59:39;4.73;;;1.90;;
5391;SDS011;2719;53.624;9.786;2023-08-06T12:02:07;9.80;;;2.67;;
5391;SDS011;2719;53.624;9.786;2023-08-06T12:05:00;3.70;;;1.90;;
5391;SDS011;2719;53.624;9.786;2023-08-06T12:07:29;3.20;;;2.07;;
5391;SDS011;2719;53.624;9.786;2023-08-06T12:09:57;3.50;;;1.53;;
5391;SDS011;2719;53.624;9.786;2023-08-06T12:12:24;5.73;;;2.50;;
5391;SDS011;2719;53.624;9.786;2023-08-06T12:14:52;4.97;;;2.40;;
5391;SDS011;2719;53.624;9.786;2023-08-06T12:17:18;3.63;;;1.97;;
5391;SDS011;2719;53.624;9.786;2023-08-06T12:19:45;4.23;;;2.13;;
5391;SDS011;2719;53.624;9.786;2023-08-06T12:22:14;4.97;;;1.63;;
5391;SDS011;2719;53.624;9.786;2023-08-06T12:24:41;3.40;;;1.63;;
5391;SDS011;2719;53.624;9.786;2023-08-06T12:27:08;3.23;;;1.40;;
5391;SDS011;2719;53.624;9.786;2023-08-06T12:29:35;2.73;;;1.73;;
5391;SDS011;2719;53.624;9.786;2023-08-06T12:32:03;2.20;;;1.63;;
5391;SDS011;2719;53.624;9.786;2023-08-06T12:34:30;6.50;;;2.27;;
5391;SDS011;2719;53.624;9.786;2023-08-06T12:36:57;9.50;;;2.20;;
5391;SDS011;2719;53.624;9.786;2023-08-06T12:39:25;4.30;;;1.43;;
5391;SDS011;2719;53.624;9.786;2023-08-06T12:41:53;4.10;;;2.00;;
5391;SDS011;2719;53.624;9.786;2023-08-06T12:44:22;5.77;;;2.70;;
5391;SDS011;2719;53.624;9.786;2023-08-06T12:46:49;6.47;;;2.80;;
5391;SDS011;2719;53.624;9.786;2023-08-06T12:49:16;5.30;;;2.17;;
5391;SDS011;2719;53.624;9.786;2023-08-06T12:51:42;5.80;;;2.23;;
5391;SDS011;2719;53.624;9.786;2023-08-06T12:54:09;7.30;;;2.43;;
5391;SDS011;2719;53.624;9.786;2023-08-06T12:56:37;5.70;;;2.90;;
5391;SDS011;2719;53.624;9.786;2023-08-06T12:59:06;6.80;;;4.10;;
5391;SDS011;2719;53.624;9.786;2023-08-06T13:01:33;9.80;;;2.87;;
5391;SDS011;2719;53.624;9.786;2023-08-06T13:03:59;9.37;;;2.70;;
5391;SDS011;2719;53.624;9.786;2023-08-06T13:06:26;8.20;;;2.40;;
5391;SDS011;2719;53.624;9.786;2023-08-06T13:08:53;6.27;;;2.70;;
5391;SDS011;2719;53.624;9.786;2023-08-06T13:11:20;8.83;;;2.30;;
5391;SDS011;2719;53.624;9.786;2023-08-06T13:13:48;4.53;;;2.50;;
5391;SDS011;2719;53.624;9.786;2023-08-06T13:16:14;6.30;;;2.77;;
5391;SDS011;2719;53.624;9.786;2023-08-06T13:18:41;13.00;;;3.27;;
5391;SDS011;2719;53.624;9.786;2023-08-06T13:21:08;6.13;;;2.40;;
5391;SDS011;2719;53.624;9.786;2023-08-06T13:23:35;5.73;;;2.50;;
5391;SDS011;2719;53.624;9.786;2023-08-06T13:26:02;10.27;;;2.90;;
5391;SDS011;2719;53.624;9.786;2023-08-06T13:28:28;7.23;;;2.60;;
5391;SDS011;2719;53.624;9.786;2023-08-06T13:30:57;4.97;;;2.60;;
5391;SDS011;2719;53.624;9.786;2023-08-06T13:33:23;7.20;;;2.50;;
5391;SDS011;2719;53.624;9.786;2023-08-06T13:35:51;5.20;;;2.37;;
5391;SDS011;2719;53.624;9.786;2023-08-06T13:38:18;5.40;;;2.40;;
5391;SDS011;2719;53.624;9.786;2023-08-06T13:40:45;4.27;;;2.37;;
5391;SDS011;2719;53.624;9.786;2023-08-06T13:43:12;6.90;;;2.20;;
5391;SDS011;2719;53.624;9.786;2023-08-06T13:45:40;4.33;;;2.47;;
5391;SDS011;2719;53.624;9.786;2023-08-06T13:48:09;2.43;;;1.43;;
5391;SDS011;2719;53.624;9.786;2023-08-06T13:50:35;3.70;;;1.53;;
5391;SDS011;2719;53.624;9.786;2023-08-06T13:53:02;3.23;;;1.30;;
5391;SDS011;2719;53.624;9.786;2023-08-06T13:55:29;3.83;;;1.40;;
5391;SDS011;2719;53.624;9.786;2023-08-06T13:57:56;4.30;;;1.20;;
5391;SDS011;2719;53.624;9.786;2023-08-06T14:00:23;3.80;;;0.90;;
5391;SDS011;2719;53.624;9.786;2023-08-06T14:02:49;2.17;;;1.00;;
5391;SDS011;2719;53.624;9.786;2023-08-06T14:05:17;4.57;;;1.20;;
5391;SDS011;2719;53.624;9.786;2023-08-06T14:07:44;1.93;;;0.90;;
5391;SDS011;2719;53.624;9.786;2023-08-06T14:10:11;2.90;;;1.10;;
5391;SDS011;2719;53.624;9.786;2023-08-06T14:12:38;4.83;;;2.10;;
5391;SDS011;2719;53.624;9.786;2023-08-06T14:15:05;7.07;;;1.50;;
5391;SDS011;2719;53.624;9.786;2023-08-06T14:17:32;2.63;;;1.57;;
5391;SDS011;2719;53.624;9.786;2023-08-06T14:19:59;2.87;;;0.90;;
5391;SDS011;2719;53.624;9.786;2023-08-06T14:22:30;6.30;;;1.17;;
5391;SDS011;2719;53.624;9.786;2023-08-06T14:24:57;3.47;;;1.10;;
5391;SDS011;2719;53.624;9.786;2023-08-06T14:27:24;3.00;;;0.97;;
5391;SDS011;2719;53.624;9.786;2023-08-06T14:29:51;2.40;;;0.90;;
5391;SDS011;2719;53.624;9.786;2023-08-06T14:32:18;2.20;;;1.20;;
5391;SDS011;2719;53.624;9.786;2023-08-06T14:34:44;1.63;;;0.83;;
5391;SDS011;2719;53.624;9.786;2023-08-06T14:37:11;2.87;;;0.93;;
5391;SDS011;2719;53.624;9.786;2023-08-06T14:39:40;5.17;;;1.30;;
5391;SDS011;2719;53.624;9.786;2023-08-06T14:42:06;2.73;;;1.00;;
5391;SDS011;2719;53.624;9.786;2023-08-06T14:44:33;3.27;;;0.93;;
5391;SDS011;2719;53.624;9.786;2023-08-06T14:47:00;2.60;;;0.80;;
5391;SDS011;2719;53.624;9.786;2023-08-06T14:49:28;2.03;;;0.70;;
5391;SDS011;2719;53.624;9.786;2023-08-06T14:51:55;2.60;;;1.03;;
5391;SDS011;2719;53.624;9.786;2023-08-06T14:54:25;4.97;;;0.80;;
5391;SDS011;2719;53.624;9.786;2023-08-06T14:56:53;1.50;;;0.90;;
5391;SDS011;2719;53.624;9.786;2023-08-06T14:59:20;2.20;;;0.80;;
5391;SDS011;2719;53.624;9.786;2023-08-06T15:01:47;5.67;;;1.30;;
5391;SDS011;2719;53.624;9.786;2023-08-06T15:04:14;3.67;;;0.80;;
5391;SDS011;2719;53.624;9.786;2023-08-06T15:06:40;1.47;;;0.70;;
5391;SDS011;2719;53.624;9.786;2023-08-06T15:09:07;4.80;;;1.00;;
5391;SDS011;2719;53.624;9.786;2023-08-06T15:11:35;2.50;;;0.90;;
5391;SDS011;2719;53.624;9.786;2023-08-06T15:14:03;4.00;;;1.40;;
5391;SDS011;2719;53.624;9.786;2023-08-06T15:16:32;3.70;;;0.90;;
5391;SDS011;2719;53.624;9.786;2023-08-06T15:18:59;2.33;;;0.80;;
5391;SDS011;2719;53.624;9.786;2023-08-06T15:21:26;1.30;;;0.80;;
5391;SDS011;2719;53.624;9.786;2023-08-06T15:23:53;2.87;;;0.90;;
5391;SDS011;2719;53.624;9.786;2023-08-06T15:26:20;1.70;;;0.97;;